sensor_id;sensor_type;location;lat;lon;timestamp;pressure;altitude;pressure_sealevel;temperature;humidity
23339;BME280;11841;49.368;20.962;2022-12-29T00:00:12;96032.63;;;0.22;88.13
23339;BME280;11841;49.368;20.962;2022-12-29T00:02:41;96030.34;;;0.19;88.54
23339;BME280;11841;49.368;20.962;2022-12-29T00:05:08;96023.16;;;0.21;89.04
23339;BME280;11841;49.368;20.962;2022-12-29T00:07:34;96030.97;;;0.21;89.07
23339;BME280;11841;49.368;20.962;2022-12-29T00:10:01;96042.25;;;0.21;89.12
23339;BME280;11841;49.368;20.962;2022-12-29T00:12:27;96036.59;;;0.26;89.22
23339;BME280;11841;49.368;20.962;2022-12-29T00:15:14;96032.88;;;0.28;88.64
23339;BME280;11841;49.368;20.962;2022-12-29T00:17:59;96027.13;;;0.25;88.79
23339;BME280;11841;49.368;20.962;2022-12-29T00:20:25;96026.44;;;0.23;88.80
23339;BME280;11841;49.368;20.962;2022-12-29T00:23:10;96024.00;;;0.21;89.16
23339;BME280;11841;49.368;20.962;2022-12-29T00:25:55;96032.34;;;0.25;88.91
23339;BME280;11841;49.368;20.962;2022-12-29T00:28:40;96021.75;;;0.26;88.56
23339;BME280;11841;49.368;20.962;2022-12-29T00:31:25;96027.28;;;0.23;89.03
23339;BME280;11841;49.368;20.962;2022-12-29T00:34:10;96028.75;;;0.26;88.52
23339;BME280;11841;49.368;20.962;2022-12-29T00:36:56;96028.75;;;0.26;88.46
23339;BME280;11841;49.368;20.962;2022-12-29T00:39:23;96031.81;;;0.21;88.56
23339;BME280;11841;49.368;20.962;2022-12-29T00:42:08;96025.38;;;0.16;88.83
23339;BME280;11841;49.368;20.962;2022-12-29T00:44:54;96034.88;;;0.17;89.54
23339;BME280;11841;49.368;20.962;2022-12-29T00:47:20;96048.28;;;0.22;89.31
23339;BME280;11841;49.368;20.962;2022-12-29T00:49:46;96037.56;;;0.25;88.78
23339;BME280;11841;49.368;20.962;2022-12-29T00:52:13;96028.91;;;0.24;88.62
23339;BME280;11841;49.368;20.962;2022-12-29T00:54:40;96024.44;;;0.17;89.47
23339;BME280;11841;49.368;20.962;2022-12-29T00:57:07;96031.28;;;0.18;89.68
23339;BME280;11841;49.368;20.962;2022-12-29T00:59:35;96025.75;;;0.21;89.61
23339;BME280;11841;49.368;20.962;2022-12-29T01:02:02;96032.63;;;0.22;89.32
23339;BME280;11841;49.368;20.962;2022-12-29T01:04:29;96029.06;;;0.23;89.69
23339;BME280;11841;49.368;20.962;2022-12-29T01:06:55;96035.09;;;0.23;90.16
23339;BME280;11841;49.368;20.962;2022-12-29T01:09:22;96028.22;;;0.22;90.13
23339;BME280;11841;49.368;20.962;2022-12-29T01:12:08;96028.50;;;0.29;89.90
23339;BME280;11841;49.368;20.962;2022-12-29T01:14:36;96024.91;;;0.30;89.69
23339;BME280;11841;49.368;20.962;2022-12-29T01:17:03;96022.00;;;0.33;89.28
23339;BME280;11841;49.368;20.962;2022-12-29T01:19:29;96015.31;;;0.30;89.32
23339;BME280;11841;49.368;20.962;2022-12-29T01:21:56;96016.41;;;0.28;89.29
23339;BME280;11841;49.368;20.962;2022-12-29T01:24:22;96019.97;;;0.27;89.31
23339;BME280;11841;49.368;20.962;2022-12-29T01:26:49;96004.19;;;0.28;88.66
23339;BME280;11841;49.368;20.962;2022-12-29T01:29:15;95997.47;;;0.26;88.92
23339;BME280;11841;49.368;20.962;2022-12-29T01:31:43;95992.84;;;0.20;89.19
23339;BME280;11841;49.368;20.962;2022-12-29T01:34:09;96001.34;;;0.22;89.41
23339;BME280;11841;49.368;20.962;2022-12-29T01:36:36;95990.63;;;0.25;89.13
23339;BME280;11841;49.368;20.962;2022-12-29T01:39:02;95999.69;;;0.21;89.19
23339;BME280;11841;49.368;20.962;2022-12-29T01:41:29;95998.75;;;0.22;89.39
23339;BME280;11841;49.368;20.962;2022-12-29T01:43:56;96006.56;;;0.22;89.04
23339;BME280;11841;49.368;20.962;2022-12-29T01:48:54;95996.38;;;0.28;89.47
23339;BME280;11841;49.368;20.962;2022-12-29T01:51:22;95993.59;;;0.30;89.37
23339;BME280;11841;49.368;20.962;2022-12-29T01:53:49;95988.91;;;0.33;89.38
23339;BME280;11841;49.368;20.962;2022-12-29T01:56:17;95992.44;;;0.42;89.11
23339;BME280;11841;49.368;20.962;2022-12-29T01:58:46;95985.84;;;0.38;88.89
23339;BME280;11841;49.368;20.962;2022-12-29T02:01:15;95982.16;;;0.40;89.03
23339;BME280;11841;49.368;20.962;2022-12-29T02:03:43;95989.81;;;0.42;89.07
23339;BME280;11841;49.368;20.962;2022-12-29T02:06:11;95992.44;;;0.42;88.90
23339;BME280;11841;49.368;20.962;2022-12-29T02:08:39;95996.13;;;0.39;88.88
23339;BME280;11841;49.368;20.962;2022-12-29T02:11:07;95994.38;;;0.40;88.67
23339;BME280;11841;49.368;20.962;2022-12-29T02:13:33;95994.88;;;0.43;88.69
23339;BME280;11841;49.368;20.962;2022-12-29T02:16:10;95994.59;;;0.46;88.68
23339;BME280;11841;49.368;20.962;2022-12-29T02:26:22;95988.25;;;0.49;88.53
23339;BME280;11841;49.368;20.962;2022-12-29T02:33:51;95978.13;;;0.46;89.16
23339;BME280;11841;49.368;20.962;2022-12-29T02:42:00;95964.41;;;0.44;89.54
23339;BME280;11841;49.368;20.962;2022-12-29T02:47:21;95977.84;;;0.49;89.85
23339;BME280;11841;49.368;20.962;2022-12-29T02:49:56;95974.25;;;0.50;89.67
23339;BME280;11841;49.368;20.962;2022-12-29T02:52:27;95969.31;;;0.47;89.83
23339;BME280;11841;49.368;20.962;2022-12-29T02:54:57;95975.91;;;0.51;90.23
23339;BME280;11841;49.368;20.962;2022-12-29T02:59:53;95972.47;;;0.50;89.77
23339;BME280;11841;49.368;20.962;2022-12-29T03:10:04;95979.94;;;0.63;89.18
23339;BME280;11841;49.368;20.962;2022-12-29T03:15:26;95973.78;;;0.72;89.06
23339;BME280;11841;49.368;20.962;2022-12-29T03:21:05;95990.13;;;0.74;89.17
23339;BME280;11841;49.368;20.962;2022-12-29T03:23:34;95988.34;;;0.74;89.26
23339;BME280;11841;49.368;20.962;2022-12-29T03:26:03;95993.25;;;0.77;89.01
23339;BME280;11841;49.368;20.962;2022-12-29T03:28:32;95986.53;;;0.75;88.85
23339;BME280;11841;49.368;20.962;2022-12-29T03:31:01;95997.66;;;0.77;89.08
23339;BME280;11841;49.368;20.962;2022-12-29T03:33:30;95996.31;;;0.73;89.23
23339;BME280;11841;49.368;20.962;2022-12-29T03:35:59;96008.09;;;0.77;89.49
23339;BME280;11841;49.368;20.962;2022-12-29T03:38:30;96005.84;;;0.82;89.30
23339;BME280;11841;49.368;20.962;2022-12-29T03:41:00;95997.06;;;0.83;89.24
23339;BME280;11841;49.368;20.962;2022-12-29T03:43:29;95996.38;;;0.81;89.25
23339;BME280;11841;49.368;20.962;2022-12-29T03:45:56;96003.59;;;0.87;89.38
23339;BME280;11841;49.368;20.962;2022-12-29T03:48:22;95990.28;;;0.90;89.17
23339;BME280;11841;49.368;20.962;2022-12-29T03:50:49;95979.16;;;0.88;89.27
23339;BME280;11841;49.368;20.962;2022-12-29T03:53:15;95979.69;;;0.91;89.31
23339;BME280;11841;49.368;20.962;2022-12-29T03:55:42;95978.53;;;0.94;89.25
23339;BME280;11841;49.368;20.962;2022-12-29T03:58:08;95974.22;;;0.85;89.29
23339;BME280;11841;49.368;20.962;2022-12-29T04:00:35;95963.50;;;0.88;89.63
23339;BME280;11841;49.368;20.962;2022-12-29T04:03:01;95962.06;;;0.93;89.63
23339;BME280;11841;49.368;20.962;2022-12-29T04:05:28;95965.50;;;0.94;89.43
23339;BME280;11841;49.368;20.962;2022-12-29T04:07:54;95958.34;;;0.96;89.56
23339;BME280;11841;49.368;20.962;2022-12-29T04:10:21;95951.84;;;1.00;89.42
23339;BME280;11841;49.368;20.962;2022-12-29T04:12:47;95951.03;;;0.99;89.18
23339;BME280;11841;49.368;20.962;2022-12-29T04:15:14;95949.88;;;1.02;88.99
23339;BME280;11841;49.368;20.962;2022-12-29T04:17:40;95948.59;;;1.06;88.59
23339;BME280;11841;49.368;20.962;2022-12-29T04:20:07;95944.06;;;1.08;88.63
23339;BME280;11841;49.368;20.962;2022-12-29T04:23:02;95939.78;;;1.07;88.81
23339;BME280;11841;49.368;20.962;2022-12-29T04:25:33;95942.72;;;1.04;88.56
23339;BME280;11841;49.368;20.962;2022-12-29T04:27:59;95936.22;;;1.08;88.42
23339;BME280;11841;49.368;20.962;2022-12-29T04:30:26;95940.09;;;1.04;88.97
23339;BME280;11841;49.368;20.962;2022-12-29T04:32:53;95936.53;;;1.05;88.98
23339;BME280;11841;49.368;20.962;2022-12-29T04:35:19;95946.81;;;1.06;89.24
23339;BME280;11841;49.368;20.962;2022-12-29T04:37:46;95954.66;;;1.06;89.17
23339;BME280;11841;49.368;20.962;2022-12-29T04:40:12;95962.34;;;1.08;89.14
23339;BME280;11841;49.368;20.962;2022-12-29T04:42:38;95973.47;;;1.10;89.21
23339;BME280;11841;49.368;20.962;2022-12-29T04:45:05;95971.66;;;1.10;89.48
23339;BME280;11841;49.368;20.962;2022-12-29T04:47:32;95963.00;;;1.10;89.21
23339;BME280;11841;49.368;20.962;2022-12-29T04:49:59;95949.28;;;1.08;89.30
23339;BME280;11841;49.368;20.962;2022-12-29T04:52:26;95943.06;;;1.09;89.31
23339;BME280;11841;49.368;20.962;2022-12-29T04:54:52;95950.31;;;1.15;88.90
23339;BME280;11841;49.368;20.962;2022-12-29T04:57:19;95950.63;;;1.12;88.83
23339;BME280;11841;49.368;20.962;2022-12-29T04:59:45;95935.75;;;1.12;89.02
23339;BME280;11841;49.368;20.962;2022-12-29T05:02:12;95940.81;;;1.14;88.83
23339;BME280;11841;49.368;20.962;2022-12-29T05:04:39;95943.28;;;1.15;88.96
23339;BME280;11841;49.368;20.962;2022-12-29T05:07:06;95951.78;;;1.17;88.70
23339;BME280;11841;49.368;20.962;2022-12-29T05:09:32;95965.34;;;1.21;88.87
23339;BME280;11841;49.368;20.962;2022-12-29T05:11:59;95959.81;;;1.24;88.44
23339;BME280;11841;49.368;20.962;2022-12-29T05:14:26;95956.84;;;1.19;88.06
23339;BME280;11841;49.368;20.962;2022-12-29T05:16:52;95958.00;;;1.16;88.12
23339;BME280;11841;49.368;20.962;2022-12-29T05:19:19;95962.69;;;1.13;88.09
23339;BME280;11841;49.368;20.962;2022-12-29T05:21:45;95960.44;;;1.18;88.29
23339;BME280;11841;49.368;20.962;2022-12-29T05:24:11;95946.41;;;1.19;88.18
23339;BME280;11841;49.368;20.962;2022-12-29T05:26:38;95950.31;;;1.15;88.15
23339;BME280;11841;49.368;20.962;2022-12-29T05:29:04;95941.19;;;1.19;88.19
23339;BME280;11841;49.368;20.962;2022-12-29T05:31:31;95946.13;;;1.22;88.21
23339;BME280;11841;49.368;20.962;2022-12-29T05:33:57;95947.75;;;1.23;88.46
23339;BME280;11841;49.368;20.962;2022-12-29T05:36:24;95947.75;;;1.23;88.26
23339;BME280;11841;49.368;20.962;2022-12-29T05:38:50;95939.25;;;1.21;88.42
23339;BME280;11841;49.368;20.962;2022-12-29T05:41:17;95929.31;;;1.24;88.40
23339;BME280;11841;49.368;20.962;2022-12-29T05:43:43;95920.97;;;1.21;88.07
23339;BME280;11841;49.368;20.962;2022-12-29T05:46:10;95925.81;;;1.16;88.17
23339;BME280;11841;49.368;20.962;2022-12-29T05:48:36;95934.28;;;1.10;88.33
23339;BME280;11841;49.368;20.962;2022-12-29T05:51:03;95937.41;;;1.13;88.45
23339;BME280;11841;49.368;20.962;2022-12-29T05:53:30;95939.25;;;1.21;88.48
23339;BME280;11841;49.368;20.962;2022-12-29T05:55:56;95934.53;;;1.24;88.47
23339;BME280;11841;49.368;20.962;2022-12-29T05:58:23;95938.13;;;1.23;88.58
23339;BME280;11841;49.368;20.962;2022-12-29T06:00:49;95943.34;;;1.23;88.37
23339;BME280;11841;49.368;20.962;2022-12-29T06:03:16;95941.53;;;1.24;88.51
23339;BME280;11841;49.368;20.962;2022-12-29T06:05:46;95939.75;;;1.24;88.43
23339;BME280;11841;49.368;20.962;2022-12-29T06:08:13;95932.91;;;1.23;88.51
23339;BME280;11841;49.368;20.962;2022-12-29T06:10:39;95933.69;;;1.24;88.63
23339;BME280;11841;49.368;20.962;2022-12-29T06:13:05;95935.97;;;1.19;88.61
23339;BME280;11841;49.368;20.962;2022-12-29T06:15:33;95939.25;;;1.21;88.74
23339;BME280;11841;49.368;20.962;2022-12-29T06:17:59;95934.69;;;1.23;88.83
23339;BME280;11841;49.368;20.962;2022-12-29T06:20:26;95940.22;;;1.20;89.05
23339;BME280;11841;49.368;20.962;2022-12-29T06:22:52;95944.09;;;1.16;88.99
23339;BME280;11841;49.368;20.962;2022-12-29T06:25:19;95950.00;;;1.18;89.44
23339;BME280;11841;49.368;20.962;2022-12-29T06:27:45;95943.50;;;1.22;88.93
23339;BME280;11841;49.368;20.962;2022-12-29T06:30:12;95945.28;;;1.21;88.79
23339;BME280;11841;49.368;20.962;2022-12-29T06:32:39;95943.63;;;1.20;89.08
23339;BME280;11841;49.368;20.962;2022-12-29T06:35:05;95949.31;;;1.16;89.39
23339;BME280;11841;49.368;20.962;2022-12-29T06:37:32;95946.91;;;1.22;89.37
23339;BME280;11841;49.368;20.962;2022-12-29T06:39:58;95953.63;;;1.25;89.05
23339;BME280;11841;49.368;20.962;2022-12-29T06:42:25;95969.00;;;1.28;89.41
23339;BME280;11841;49.368;20.962;2022-12-29T06:44:51;95975.72;;;1.31;89.33
23339;BME280;11841;49.368;20.962;2022-12-29T06:47:18;95977.16;;;1.25;89.17
23339;BME280;11841;49.368;20.962;2022-12-29T06:49:45;95969.66;;;1.30;89.12
23339;BME280;11841;49.368;20.962;2022-12-29T06:52:11;95959.22;;;1.30;88.97
23339;BME280;11841;49.368;20.962;2022-12-29T06:54:39;95966.91;;;1.32;89.15
23339;BME280;11841;49.368;20.962;2022-12-29T06:57:06;95957.56;;;1.29;89.30
23339;BME280;11841;49.368;20.962;2022-12-29T06:59:32;95963.09;;;1.26;89.49
23339;BME280;11841;49.368;20.962;2022-12-29T07:01:59;95968.63;;;1.23;89.59
23339;BME280;11841;49.368;20.962;2022-12-29T07:04:25;95967.38;;;1.27;89.78
23339;BME280;11841;49.368;20.962;2022-12-29T07:06:52;95961.69;;;1.32;89.75
23339;BME280;11841;49.368;20.962;2022-12-29T07:09:18;95971.97;;;1.33;89.63
23339;BME280;11841;49.368;20.962;2022-12-29T07:11:45;95978.03;;;1.34;89.57
23339;BME280;11841;49.368;20.962;2022-12-29T07:14:11;95975.38;;;1.26;89.81
23339;BME280;11841;49.368;20.962;2022-12-29T07:16:38;95975.50;;;1.24;89.84
23339;BME280;11841;49.368;20.962;2022-12-29T07:19:05;95974.06;;;1.30;89.81
23339;BME280;11841;49.368;20.962;2022-12-29T07:21:32;95960.19;;;1.29;89.34
23339;BME280;11841;49.368;20.962;2022-12-29T07:23:58;95962.50;;;1.32;89.48
23339;BME280;11841;49.368;20.962;2022-12-29T07:26:25;95972.25;;;1.22;90.23
23339;BME280;11841;49.368;20.962;2022-12-29T07:28:59;95975.06;;;1.29;89.91
23339;BME280;11841;49.368;20.962;2022-12-29T07:31:26;95980.28;;;1.29;90.19
23339;BME280;11841;49.368;20.962;2022-12-29T07:33:52;95978.81;;;1.34;90.06
23339;BME280;11841;49.368;20.962;2022-12-29T07:36:19;95977.19;;;1.33;89.95
23339;BME280;11841;49.368;20.962;2022-12-29T07:38:45;95967.53;;;1.26;90.28
23339;BME280;11841;49.368;20.962;2022-12-29T07:41:12;95971.56;;;1.20;90.53
23339;BME280;11841;49.368;20.962;2022-12-29T07:43:39;95975.97;;;1.19;90.89
23339;BME280;11841;49.368;20.962;2022-12-29T07:46:05;95978.41;;;1.21;90.99
23339;BME280;11841;49.368;20.962;2022-12-29T07:48:32;95978.47;;;1.29;90.75
23339;BME280;11841;49.368;20.962;2022-12-29T07:51:02;95978.69;;;1.36;90.75
23339;BME280;11841;49.368;20.962;2022-12-29T07:53:28;95984.44;;;1.39;90.74
23339;BME280;11841;49.368;20.962;2022-12-29T07:55:55;95982.47;;;1.41;90.54
23339;BME280;11841;49.368;20.962;2022-12-29T07:58:22;95975.44;;;1.42;90.69
23339;BME280;11841;49.368;20.962;2022-12-29T08:00:52;95977.75;;;1.45;90.67
23339;BME280;11841;49.368;20.962;2022-12-29T08:03:19;95971.41;;;1.47;90.80
23339;BME280;11841;49.368;20.962;2022-12-29T08:05:45;95967.66;;;1.50;90.77
23339;BME280;11841;49.368;20.962;2022-12-29T08:08:12;95969.16;;;1.52;90.65
23339;BME280;11841;49.368;20.962;2022-12-29T08:10:38;95969.81;;;1.54;90.71
23339;BME280;11841;49.368;20.962;2022-12-29T08:13:05;95970.41;;;1.48;90.95
23339;BME280;11841;49.368;20.962;2022-12-29T08:15:31;95957.50;;;1.47;91.02
23339;BME280;11841;49.368;20.962;2022-12-29T08:17:58;95969.81;;;1.54;90.64
23339;BME280;11841;49.368;20.962;2022-12-29T08:20:25;95975.41;;;1.59;90.89
23339;BME280;11841;49.368;20.962;2022-12-29T08:22:51;95973.94;;;1.65;90.99
23339;BME280;11841;49.368;20.962;2022-12-29T08:25:18;95980.31;;;1.62;91.02
23339;BME280;11841;49.368;20.962;2022-12-29T08:27:45;95970.84;;;1.61;91.12
23339;BME280;11841;49.368;20.962;2022-12-29T08:30:12;95961.69;;;1.65;90.76
23339;BME280;11841;49.368;20.962;2022-12-29T08:32:39;95955.97;;;1.62;91.05
23339;BME280;11841;49.368;20.962;2022-12-29T08:35:05;95963.78;;;1.62;90.93
23339;BME280;11841;49.368;20.962;2022-12-29T08:37:32;95961.34;;;1.60;90.98
23339;BME280;11841;49.368;20.962;2022-12-29T08:39:59;95960.38;;;1.61;91.23
23339;BME280;11841;49.368;20.962;2022-12-29T08:42:30;95961.84;;;1.64;91.48
23339;BME280;11841;49.368;20.962;2022-12-29T08:45:00;95957.47;;;1.64;91.22
23339;BME280;11841;49.368;20.962;2022-12-29T08:47:27;95968.09;;;1.71;91.25
23339;BME280;11841;49.368;20.962;2022-12-29T08:49:53;95966.94;;;1.73;90.80
23339;BME280;11841;49.368;20.962;2022-12-29T08:52:20;95981.34;;;1.77;90.67
23339;BME280;11841;49.368;20.962;2022-12-29T08:54:46;95982.34;;;1.76;91.03
23339;BME280;11841;49.368;20.962;2022-12-29T08:57:13;95982.53;;;1.83;90.79
23339;BME280;11841;49.368;20.962;2022-12-29T08:59:39;95976.16;;;1.85;90.44
23339;BME280;11841;49.368;20.962;2022-12-29T09:02:08;95972.59;;;1.86;90.29
23339;BME280;11841;49.368;20.962;2022-12-29T09:04:36;95982.34;;;1.76;90.46
23339;BME280;11841;49.368;20.962;2022-12-29T09:07:02;95983.94;;;1.69;90.91
23339;BME280;11841;49.368;20.962;2022-12-29T09:09:29;95977.22;;;1.67;90.80
23339;BME280;11841;49.368;20.962;2022-12-29T09:11:55;95980.03;;;1.73;91.06
23339;BME280;11841;49.368;20.962;2022-12-29T09:14:22;95989.88;;;1.79;90.44
23339;BME280;11841;49.368;20.962;2022-12-29T09:16:50;95975.16;;;1.78;90.75
23339;BME280;11841;49.368;20.962;2022-12-29T09:19:35;95968.47;;;1.84;90.69
23339;BME280;11841;49.368;20.962;2022-12-29T09:22:02;95965.69;;;1.85;90.47
23339;BME280;11841;49.368;20.962;2022-12-29T09:24:29;95974.72;;;1.91;90.19
23339;BME280;11841;49.368;20.962;2022-12-29T09:26:55;95969.66;;;1.89;89.96
23339;BME280;11841;49.368;20.962;2022-12-29T09:29:22;95964.59;;;1.88;90.35
23339;BME280;11841;49.368;20.962;2022-12-29T09:31:49;95960.47;;;1.85;90.46
23339;BME280;11841;49.368;20.962;2022-12-29T09:34:15;95957.75;;;1.95;90.16
23339;BME280;11841;49.368;20.962;2022-12-29T09:36:42;95958.09;;;2.00;90.05
23339;BME280;11841;49.368;20.962;2022-12-29T09:39:08;95946.81;;;1.99;89.99
23339;BME280;11841;49.368;20.962;2022-12-29T09:41:37;95956.94;;;2.02;90.55
23339;BME280;11841;49.368;20.962;2022-12-29T09:44:07;95955.97;;;2.03;90.34
23339;BME280;11841;49.368;20.962;2022-12-29T09:46:38;95950.75;;;2.03;90.17
23339;BME280;11841;49.368;20.962;2022-12-29T09:51:38;95946.66;;;2.09;90.11
23339;BME280;11841;49.368;20.962;2022-12-29T09:56:40;95940.31;;;2.11;90.06
23339;BME280;11841;49.368;20.962;2022-12-29T09:59:17;95939.97;;;2.14;90.01
23339;BME280;11841;49.368;20.962;2022-12-29T10:01:59;95946.53;;;2.18;89.98
23339;BME280;11841;49.368;20.962;2022-12-29T10:04:31;95942.94;;;2.19;90.23
23339;BME280;11841;49.368;20.962;2022-12-29T10:07:01;95936.88;;;2.19;89.73
23339;BME280;11841;49.368;20.962;2022-12-29T10:10:03;95928.75;;;2.22;90.33
23339;BME280;11841;49.368;20.962;2022-12-29T10:15:13;95928.91;;;2.28;90.60
23339;BME280;11841;49.368;20.962;2022-12-29T10:22:56;95917.00;;;2.42;90.22
23339;BME280;11841;49.368;20.962;2022-12-29T10:25:29;95916.50;;;2.46;90.18
23339;BME280;11841;49.368;20.962;2022-12-29T10:27:59;95919.63;;;2.50;89.63
23339;BME280;11841;49.368;20.962;2022-12-29T10:30:29;95926.16;;;2.54;89.94
23339;BME280;11841;49.368;20.962;2022-12-29T10:32:58;95928.28;;;2.59;89.84
23339;BME280;11841;49.368;20.962;2022-12-29T10:35:32;95917.50;;;2.62;89.35
23339;BME280;11841;49.368;20.962;2022-12-29T10:38:05;95910.28;;;2.64;89.97
23339;BME280;11841;49.368;20.962;2022-12-29T10:40:41;95910.13;;;2.65;89.84
23339;BME280;11841;49.368;20.962;2022-12-29T10:43:22;95916.03;;;2.67;89.63
23339;BME280;11841;49.368;20.962;2022-12-29T10:45:50;95915.69;;;2.70;89.09
23339;BME280;11841;49.368;20.962;2022-12-29T10:48:22;95912.91;;;2.72;89.38
23339;BME280;11841;49.368;20.962;2022-12-29T10:50:57;95918.16;;;2.72;89.21
23339;BME280;11841;49.368;20.962;2022-12-29T10:53:30;95915.22;;;2.75;89.30
23339;BME280;11841;49.368;20.962;2022-12-29T10:55:59;95916.50;;;2.79;89.15
23339;BME280;11841;49.368;20.962;2022-12-29T10:58:27;95909.66;;;2.78;89.34
23339;BME280;11841;49.368;20.962;2022-12-29T11:00:55;95898.53;;;2.76;89.55
23339;BME280;11841;49.368;20.962;2022-12-29T11:05:59;95903.44;;;2.71;89.06
23339;BME280;11841;49.368;20.962;2022-12-29T11:08:30;95903.09;;;2.66;88.90
23339;BME280;11841;49.368;20.962;2022-12-29T11:11:00;95901.16;;;2.68;89.29
23339;BME280;11841;49.368;20.962;2022-12-29T11:13:28;95900.81;;;2.71;89.07
23339;BME280;11841;49.368;20.962;2022-12-29T11:16:04;95903.75;;;2.76;88.73
23339;BME280;11841;49.368;20.962;2022-12-29T11:18:35;95888.72;;;2.78;88.57
23339;BME280;11841;49.368;20.962;2022-12-29T11:21:07;95894.25;;;2.83;89.23
23339;BME280;11841;49.368;20.962;2022-12-29T11:23:57;95897.69;;;2.91;88.79
23339;BME280;11841;49.368;20.962;2022-12-29T11:26:24;95900.16;;;2.93;88.55
23339;BME280;11841;49.368;20.962;2022-12-29T11:29:10;95899.81;;;2.96;87.97
23339;BME280;11841;49.368;20.962;2022-12-29T11:31:41;95885.91;;;2.95;88.62
23339;BME280;11841;49.368;20.962;2022-12-29T11:34:08;95886.25;;;3.00;88.48
23339;BME280;11841;49.368;20.962;2022-12-29T11:36:35;95884.56;;;3.07;88.86
23339;BME280;11841;49.368;20.962;2022-12-29T11:39:02;95873.91;;;3.17;88.78
23339;BME280;11841;49.368;20.962;2022-12-29T11:41:35;95869.81;;;3.22;88.29
23339;BME280;11841;49.368;20.962;2022-12-29T11:44:02;95867.03;;;3.24;87.96
23339;BME280;11841;49.368;20.962;2022-12-29T11:46:32;95863.72;;;3.30;88.06
23339;BME280;11841;49.368;20.962;2022-12-29T11:49:00;95868.94;;;3.38;87.95
23339;BME280;11841;49.368;20.962;2022-12-29T11:51:28;95859.06;;;3.48;88.06
23339;BME280;11841;49.368;20.962;2022-12-29T11:53:57;95865.28;;;3.55;88.01
23339;BME280;11841;49.368;20.962;2022-12-29T11:56:37;95868.19;;;3.60;87.88
23339;BME280;11841;49.368;20.962;2022-12-29T12:01:48;95860.63;;;3.65;87.78
23339;BME280;11841;49.368;20.962;2022-12-29T12:04:15;95865.09;;;3.64;87.09
23339;BME280;11841;49.368;20.962;2022-12-29T12:06:44;95862.94;;;3.68;87.58
23339;BME280;11841;49.368;20.962;2022-12-29T12:09:25;95844.72;;;3.66;87.55
23339;BME280;11841;49.368;20.962;2022-12-29T12:11:53;95852.09;;;3.71;87.97
23339;BME280;11841;49.368;20.962;2022-12-29T12:14:25;95852.41;;;3.76;87.73
23339;BME280;11841;49.368;20.962;2022-12-29T12:16:54;95861.41;;;3.82;87.45
23339;BME280;11841;49.368;20.962;2022-12-29T12:19:41;95858.25;;;3.86;87.05
23339;BME280;11841;49.368;20.962;2022-12-29T12:27:39;95858.13;;;3.80;86.45
23339;BME280;11841;49.368;20.962;2022-12-29T12:50:55;95841.69;;;3.55;87.49
23339;BME280;11841;49.368;20.962;2022-12-29T12:53:31;95837.97;;;3.49;87.85
23339;BME280;11841;49.368;20.962;2022-12-29T12:58:53;95843.22;;;3.41;88.04
23339;BME280;11841;49.368;20.962;2022-12-29T13:06:45;95817.94;;;3.48;87.65
23339;BME280;11841;49.368;20.962;2022-12-29T13:09:17;95835.66;;;3.46;87.75
23339;BME280;11841;49.368;20.962;2022-12-29T13:14:25;95846.47;;;3.43;87.79
23339;BME280;11841;49.368;20.962;2022-12-29T13:17:43;95834.25;;;3.36;87.58
23339;BME280;11841;49.368;20.962;2022-12-29T13:27:19;95848.13;;;3.44;87.13
23339;BME280;11841;49.368;20.962;2022-12-29T13:29:56;95838.31;;;3.38;86.57
23339;BME280;11841;49.368;20.962;2022-12-29T13:35:00;95835.75;;;3.14;87.10
23339;BME280;11841;49.368;20.962;2022-12-29T13:37:29;95835.97;;;3.05;87.40
23339;BME280;11841;49.368;20.962;2022-12-29T13:39:59;95838.28;;;3.00;87.40
23339;BME280;11841;49.368;20.962;2022-12-29T13:42:27;95846.16;;;2.92;87.52
23339;BME280;11841;49.368;20.962;2022-12-29T13:44:59;95851.38;;;2.92;87.48
23339;BME280;11841;49.368;20.962;2022-12-29T13:47:29;95850.91;;;2.88;88.01
23339;BME280;11841;49.368;20.962;2022-12-29T13:49:57;95848.44;;;2.79;87.55
23339;BME280;11841;49.368;20.962;2022-12-29T13:52:28;95850.56;;;2.75;88.03
23339;BME280;11841;49.368;20.962;2022-12-29T13:55:07;95859.91;;;2.70;87.69
23339;BME280;11841;49.368;20.962;2022-12-29T13:57:56;95859.59;;;2.73;87.51
23339;BME280;11841;49.368;20.962;2022-12-29T14:00:25;95854.66;;;2.78;88.04
23339;BME280;11841;49.368;20.962;2022-12-29T14:03:01;95854.19;;;2.74;87.26
23339;BME280;11841;49.368;20.962;2022-12-29T14:05:31;95860.41;;;2.81;87.36
23339;BME280;11841;49.368;20.962;2022-12-29T14:07:59;95871.34;;;2.77;87.32
23339;BME280;11841;49.368;20.962;2022-12-29T14:10:36;95873.31;;;2.67;87.48
23339;BME280;11841;49.368;20.962;2022-12-29T14:15:40;95885.09;;;2.55;87.90
23339;BME280;11841;49.368;20.962;2022-12-29T14:18:13;95884.13;;;2.56;87.97
23339;BME280;11841;49.368;20.962;2022-12-29T14:20:49;95883.81;;;2.51;88.32
23339;BME280;11841;49.368;20.962;2022-12-29T14:23:26;95874.28;;;2.49;88.37
23339;BME280;11841;49.368;20.962;2022-12-29T14:28:32;95870.03;;;2.32;88.72
23339;BME280;11841;49.368;20.962;2022-12-29T14:31:03;95882.78;;;2.27;89.01
23339;BME280;11841;49.368;20.962;2022-12-29T14:33:30;95881.16;;;2.26;89.38
23339;BME280;11841;49.368;20.962;2022-12-29T14:36:18;95886.72;;;2.15;89.30
23339;BME280;11841;49.368;20.962;2022-12-29T14:38:44;95884.38;;;2.04;90.08
23339;BME280;11841;49.368;20.962;2022-12-29T14:41:16;95889.94;;;2.09;89.98
23339;BME280;11841;49.368;20.962;2022-12-29T14:43:57;95889.00;;;2.10;90.15
23339;BME280;11841;49.368;20.962;2022-12-29T14:46:25;95895.19;;;2.09;89.99
23339;BME280;11841;49.368;20.962;2022-12-29T14:48:58;95889.94;;;2.01;89.29
23339;BME280;11841;49.368;20.962;2022-12-29T14:51:29;95890.56;;;1.95;89.85
23339;BME280;11841;49.368;20.962;2022-12-29T14:53:57;95891.25;;;2.05;90.16
23339;BME280;11841;49.368;20.962;2022-12-29T14:56:24;95894.69;;;2.14;89.97
23339;BME280;11841;49.368;20.962;2022-12-29T15:01:26;95905.81;;;2.08;89.48
23339;BME280;11841;49.368;20.962;2022-12-29T15:03:57;95897.47;;;2.04;89.66